Terminal Aerodrome Forecast
Issued by NWS Albuquerque, NM

Home | Current Version | Previous Version | Text Only | Print | Product List | Glossary On
Versions: 1 2 3 4 5 6 7 8 9 10 11 12
000
FTUS45 KABQ 290539
TAFABQ
TAF
KABQ 290539Z 2906/3006 02005KT P6SM SCT120
     FM292100 09011KT P6SM SCT120
     FM292300 10014G24KT P6SM VCSH SCT080 BKN120
     FM300500 09012G22KT P6SM BKN120=

USA.gov is the U.S. government's official web portal to all federal, state and local government web resources and services.